createdAt,value
2023-05-14T00:15:48.038Z,99.99
2023-05-14T03:51:45.636Z,99.99
2023-05-14T03:52:45.630Z,99.99
2023-05-14T03:53:45.592Z,99.99
2023-05-14T03:54:45.618Z,99.99
2023-05-14T03:55:45.579Z,99.99
2023-05-14T03:56:45.664Z,99.99
2023-05-14T03:57:45.556Z,99.99
2023-05-14T03:58:45.589Z,99.99
2023-05-14T03:59:45.699Z,99.99
2023-05-14T04:00:45.538Z,99.99
2023-05-14T04:01:45.531Z,99.99
2023-05-14T04:02:45.567Z,99.99
2023-05-14T04:03:45.715Z,99.99
2023-05-14T04:04:45.509Z,99.99
2023-05-14T04:05:45.502Z,99.99
2023-05-14T04:06:45.515Z,99.99
2023-05-14T04:07:45.460Z,99.99
2023-05-14T04:08:45.478Z,99.99
2023-05-14T04:09:45.506Z,99.99
2023-05-14T04:10:45.508Z,99.99
2023-05-14T04:11:45.401Z,99.99
2023-05-14T04:12:45.476Z,99.99
2023-05-14T04:13:45.417Z,99.99
2023-05-14T04:14:45.400Z,99.99
2023-05-14T04:15:45.378Z,99.99
2023-05-14T04:16:45.481Z,99.99
2023-05-14T04:17:45.370Z,99.99
2023-05-14T04:18:45.394Z,99.99
2023-05-14T04:19:45.344Z,99.99
2023-05-14T04:20:45.394Z,99.99
2023-05-14T04:21:45.305Z,99.99
2023-05-14T04:22:45.373Z,99.99
2023-05-14T04:23:45.375Z,99.99
2023-05-14T04:24:45.300Z,99.99
2023-05-14T04:25:45.315Z,99.99
2023-05-14T04:26:45.272Z,99.99
2023-05-14T04:27:45.261Z,99.99
2023-05-14T04:28:45.263Z,99.99
2023-05-14T04:29:45.264Z,99.99
2023-05-14T04:30:45.255Z,99.99
2023-05-14T04:31:45.291Z,99.99
2023-05-14T04:32:45.272Z,99.99
2023-05-14T04:33:45.208Z,99.99
2023-05-14T04:34:45.205Z,99.99
2023-05-14T04:35:45.149Z,99.99
2023-05-14T04:36:45.146Z,99.99
2023-05-14T04:37:45.237Z,99.99
2023-05-14T04:38:45.135Z,99.99
2023-05-14T04:39:45.125Z,99.99
2023-05-14T04:40:45.146Z,99.99
2023-05-14T04:41:45.121Z,99.99
2023-05-14T04:42:45.079Z,99.99
2023-05-14T04:43:45.068Z,99.99
2023-05-14T04:44:45.070Z,99.99
2023-05-14T04:45:45.157Z,99.99
2023-05-14T04:46:45.069Z,99.99
2023-05-14T04:47:45.116Z,99.99
2023-05-14T04:48:45.244Z,99.99
2023-05-14T04:49:45.066Z,99.99
2023-05-14T04:50:45.201Z,99.99
2023-05-14T04:51:45.110Z,99.99
2023-05-14T04:52:45.034Z,99.99
2023-05-14T04:53:45.018Z,99.99
2023-05-14T04:54:45.169Z,99.99
2023-05-14T04:55:44.969Z,99.99
2023-05-14T04:56:44.973Z,99.99
2023-05-14T04:57:44.929Z,99.99
2023-05-14T04:58:44.944Z,99.99
2023-05-14T04:59:44.912Z,99.99
2023-05-14T05:00:44.920Z,99.99
2023-05-14T05:01:45.256Z,99.99
2023-05-14T05:02:44.907Z,99.99
2023-05-14T05:03:45.014Z,99.99
2023-05-14T05:04:44.854Z,99.99
2023-05-14T05:05:45.046Z,99.99
2023-05-14T05:06:44.844Z,99.99
2023-05-14T05:07:44.901Z,99.99
2023-05-14T05:08:44.838Z,99.99
2023-05-14T05:09:44.878Z,99.99
2023-05-14T05:10:44.807Z,99.99
2023-05-14T05:11:44.777Z,99.99
2023-05-14T05:12:44.776Z,99.99
2023-05-14T05:13:44.770Z,99.99
2023-05-14T05:14:44.965Z,99.99
2023-05-14T05:15:44.767Z,99.99
2023-05-14T05:16:44.773Z,99.99
2023-05-14T05:17:44.766Z,99.99
2023-05-14T05:18:44.776Z,99.99
2023-05-14T05:19:44.822Z,99.99
2023-05-14T05:20:44.721Z,99.99
2023-05-14T05:21:44.741Z,99.99
2023-05-14T05:22:44.758Z,99.99
2023-05-14T05:23:44.698Z,99.99
2023-05-14T05:24:44.756Z,99.99
2023-05-14T05:25:44.633Z,99.99
2023-05-14T05:26:44.671Z,99.99
2023-05-14T05:27:44.638Z,99.99
2023-05-14T05:28:44.594Z,99.99
2023-05-14T05:29:44.666Z,99.99
2023-05-14T05:30:44.596Z,99.99
2023-05-14T05:31:44.722Z,99.99
2023-05-14T05:32:44.593Z,99.99
2023-05-14T05:33:44.774Z,99.99
2023-05-14T05:34:44.539Z,99.99
2023-05-14T05:35:44.612Z,99.99
2023-05-14T05:36:44.508Z,99.99
2023-05-14T05:37:44.508Z,99.99
2023-05-14T05:38:44.726Z,99.99
2023-05-14T05:39:44.481Z,99.99
2023-05-14T05:40:44.494Z,98.30
2023-05-14T05:41:44.462Z,97.13
2023-05-14T05:42:44.454Z,95.67
2023-05-14T05:43:44.463Z,95.42
2023-05-14T05:44:44.435Z,94.16
2023-05-14T05:45:44.427Z,92.44
2023-05-14T05:46:44.467Z,92.44
2023-05-14T05:47:44.434Z,90.22
2023-05-14T05:48:44.375Z,89.97
2023-05-14T05:49:44.397Z,89.56
2023-05-14T05:50:44.388Z,90.90
2023-05-14T05:51:44.372Z,88.02
2023-05-14T05:52:44.444Z,85.15
2023-05-14T05:53:44.365Z,84.03
2023-05-14T05:54:44.298Z,85.77
2023-05-14T05:55:44.299Z,85.94
2023-05-14T05:56:44.272Z,82.91
2023-05-14T05:57:44.293Z,83.81
2023-05-14T05:58:44.289Z,84.08
2023-05-14T05:59:44.256Z,80.24
2023-05-14T06:00:44.230Z,81.29
2023-05-14T06:01:44.307Z,79.51
2023-05-14T06:02:44.506Z,82.44
2023-05-14T06:03:45.800Z,85.19
2023-05-14T06:04:44.209Z,84.04
2023-05-14T06:05:44.316Z,81.66
2023-05-14T06:06:44.248Z,82.73
2023-05-14T06:07:44.230Z,80.87
2023-05-14T06:08:44.169Z,80.98
2023-05-14T06:09:44.145Z,80.17
2023-05-14T06:10:45.246Z,80.81
2023-05-14T06:11:44.149Z,81.84
2023-05-14T06:12:44.136Z,80.49
2023-05-14T06:13:44.123Z,80.49
2023-05-14T06:14:44.122Z,78.64
2023-05-14T06:15:44.115Z,77.47
2023-05-14T06:16:44.165Z,78.64
2023-05-14T06:17:44.140Z,78.14
2023-05-14T06:18:44.131Z,78.14
2023-05-14T06:19:44.268Z,78.95
2023-05-14T06:20:44.045Z,77.00
2023-05-14T06:21:44.032Z,79.25
2023-05-14T06:22:44.006Z,79.45
2023-05-14T06:23:44.116Z,78.71
2023-05-14T06:24:44.004Z,74.48
2023-05-14T06:25:44.020Z,76.36
2023-05-14T06:26:43.974Z,79.78
2023-05-14T06:27:43.974Z,78.63
2023-05-14T06:28:43.960Z,76.99
2023-05-14T06:29:44.163Z,73.07
2023-05-14T06:30:43.949Z,74.61
2023-05-14T06:31:44.005Z,74.01
2023-05-14T06:32:43.918Z,78.60
2023-05-14T06:33:43.911Z,73.43
2023-05-14T06:34:43.890Z,71.89
2023-05-14T06:35:43.912Z,77.29
2023-05-14T06:36:43.857Z,72.46
2023-05-14T06:37:43.861Z,75.68
2023-05-14T06:38:43.841Z,77.66
2023-05-14T06:39:43.862Z,78.38
2023-05-14T06:40:43.830Z,76.04
2023-05-14T06:41:43.823Z,74.54
2023-05-14T06:42:43.789Z,69.42
2023-05-14T06:43:43.820Z,72.49
2023-05-14T06:44:43.776Z,72.99
2023-05-14T06:45:43.787Z,71.49
2023-05-14T06:46:43.739Z,72.60
2023-05-14T06:47:43.801Z,71.66
2023-05-14T06:48:43.751Z,68.45
2023-05-14T06:49:43.762Z,69.79
2023-05-14T06:50:43.715Z,70.75
2023-05-14T06:51:43.707Z,70.56
2023-05-14T06:52:43.685Z,70.82
2023-05-14T06:53:43.693Z,74.49
2023-05-14T06:54:43.650Z,74.46
2023-05-14T06:55:43.716Z,69.32
2023-05-14T06:56:43.652Z,72.42
2023-05-14T06:57:43.655Z,70.39
2023-05-14T06:58:43.639Z,67.12
2023-05-14T06:59:43.626Z,67.48
2023-05-14T07:00:43.624Z,72.69
2023-05-14T07:01:43.621Z,73.69
2023-05-14T07:02:43.584Z,71.12
2023-05-14T07:03:43.596Z,66.05
2023-05-14T07:04:43.653Z,69.95
2023-05-14T07:05:43.556Z,69.72
2023-05-14T07:06:43.525Z,70.09
2023-05-14T07:07:43.543Z,72.55
2023-05-14T07:08:43.507Z,69.29
2023-05-14T07:09:43.502Z,67.46
2023-05-14T07:10:43.471Z,73.41
2023-05-14T07:11:43.511Z,64.12
2023-05-14T07:12:43.490Z,69.22
2023-05-14T07:13:43.493Z,64.92
2023-05-14T07:14:43.445Z,65.16
2023-05-14T07:15:43.469Z,69.42
2023-05-14T07:16:43.448Z,69.22
2023-05-14T07:17:43.421Z,65.10
2023-05-14T07:18:43.495Z,64.12
2023-05-14T07:19:43.389Z,70.98
2023-05-14T07:20:43.379Z,71.28
2023-05-14T07:21:43.364Z,67.49
2023-05-14T07:22:43.383Z,63.37
2023-05-14T07:23:43.348Z,66.33
2023-05-14T07:24:43.353Z,66.63
2023-05-14T07:25:43.328Z,63.07
2023-05-14T07:26:43.317Z,66.93
2023-05-14T07:27:43.352Z,66.40
2023-05-14T07:28:43.312Z,65.00
2023-05-14T07:29:43.319Z,65.07
2023-05-14T07:30:43.296Z,67.03
2023-05-14T07:31:43.280Z,62.52
2023-05-14T07:32:43.275Z,62.62
2023-05-14T07:33:43.257Z,65.47
2023-05-14T07:34:43.239Z,62.19
2023-05-14T07:35:43.227Z,65.38
2023-05-14T07:36:43.198Z,60.07
2023-05-14T07:37:43.230Z,61.26
2023-05-14T07:38:43.180Z,59.90
2023-05-14T07:39:43.234Z,65.64
2023-05-14T07:40:43.161Z,65.35
2023-05-14T07:41:43.196Z,63.85
2023-05-14T07:42:43.150Z,60.37
2023-05-14T07:43:43.234Z,61.56
2023-05-14T07:44:43.130Z,63.25
2023-05-14T07:45:43.127Z,58.11
2023-05-14T07:46:43.106Z,60.33
2023-05-14T07:47:43.196Z,61.19
2023-05-14T07:48:43.115Z,68.46
2023-05-14T07:49:43.096Z,62.76
2023-05-14T07:50:43.092Z,61.37
2023-05-14T07:51:43.046Z,57.09
2023-05-14T07:52:43.026Z,58.70
2023-05-14T07:53:43.025Z,60.99
2023-05-14T07:54:43.036Z,64.35
2023-05-14T07:55:43.019Z,62.33
2023-05-14T07:56:43.008Z,55.04
2023-05-14T07:57:42.972Z,67.50
2023-05-14T07:58:42.995Z,56.85
2023-05-14T07:59:43.013Z,55.49
2023-05-14T08:00:42.983Z,56.26
2023-05-14T08:01:43.044Z,58.18
2023-05-14T08:02:43.134Z,58.34
2023-05-14T08:03:43.045Z,58.94
2023-05-14T08:04:42.893Z,59.76
2023-05-14T08:05:42.953Z,61.29
2023-05-14T08:06:42.880Z,60.67
2023-05-14T08:07:42.877Z,57.86
2023-05-14T08:08:42.858Z,56.24
2023-05-14T08:09:42.844Z,57.73
2023-05-14T08:10:42.874Z,57.50
2023-05-14T08:11:42.851Z,59.36
2023-05-14T08:12:42.880Z,57.11
2023-05-14T08:13:42.837Z,57.25
2023-05-14T08:14:42.793Z,55.86
2023-05-14T08:15:42.859Z,59.23
2023-05-14T08:16:42.827Z,65.39
2023-05-14T08:17:42.902Z,57.63
2023-05-14T08:18:42.774Z,55.43
2023-05-14T08:19:42.738Z,54.96
2023-05-14T08:20:42.742Z,56.32
2023-05-14T08:21:42.748Z,57.14
2023-05-14T08:22:42.715Z,59.36
2023-05-14T08:23:42.750Z,55.18
2023-05-14T08:24:42.706Z,54.09
2023-05-14T08:25:42.698Z,55.71
2023-05-14T08:26:42.691Z,60.54
2023-05-14T08:27:42.727Z,58.16
2023-05-14T08:28:42.667Z,56.92
2023-05-14T08:29:42.672Z,54.69
2023-05-14T08:30:42.668Z,57.80
2023-05-14T08:31:42.644Z,53.99
2023-05-14T08:32:42.642Z,50.33
2023-05-14T08:33:42.625Z,56.98
2023-05-14T08:34:44.083Z,59.60
2023-05-14T08:35:42.588Z,52.28
2023-05-14T08:36:42.583Z,54.55
2023-05-14T08:37:42.601Z,54.26
2023-05-14T08:38:42.766Z,56.19
2023-05-14T08:39:42.537Z,50.75
2023-05-14T08:40:42.544Z,57.55
2023-05-14T08:41:42.536Z,52.41
2023-05-14T08:42:42.518Z,54.78
2023-05-14T08:43:42.502Z,55.22
2023-05-14T08:44:42.672Z,53.12
2023-05-14T08:45:42.473Z,51.07
2023-05-14T08:46:42.473Z,55.74
2023-05-14T08:47:42.514Z,51.34
2023-05-14T08:48:42.485Z,58.77
2023-05-14T08:49:42.437Z,53.10
2023-05-14T08:50:42.427Z,50.90
2023-05-14T08:51:42.426Z,55.35
2023-05-14T08:52:42.415Z,53.49
2023-05-14T08:53:42.427Z,51.47
2023-05-14T08:54:42.366Z,58.95
2023-05-14T08:55:42.389Z,60.54
2023-05-14T08:56:42.344Z,61.07
2023-05-14T08:57:42.366Z,56.22
2023-05-14T08:58:42.332Z,54.04
2023-05-14T08:59:42.328Z,52.06
2023-05-14T09:00:42.303Z,54.21
2023-05-14T09:01:42.388Z,58.48
2023-05-14T09:02:42.340Z,54.77
2023-05-14T09:03:42.354Z,54.01
2023-05-14T09:04:42.296Z,54.35
2023-05-14T09:05:42.288Z,53.66
2023-05-14T09:06:42.265Z,52.70
2023-05-14T09:07:42.278Z,54.84
2023-05-14T09:08:42.255Z,50.04
2023-05-14T09:09:42.234Z,51.88
2023-05-14T09:10:42.203Z,48.93
2023-05-14T09:11:42.226Z,49.52
2023-05-14T09:12:42.208Z,51.02
2023-05-14T09:13:42.207Z,47.16
2023-05-14T09:14:42.161Z,47.57
2023-05-14T09:15:42.382Z,48.73
2023-05-14T09:16:42.222Z,52.45
2023-05-14T09:17:42.211Z,49.76
2023-05-14T09:18:42.179Z,52.89
2023-05-14T09:19:42.129Z,48.46
2023-05-14T09:20:42.109Z,48.63
2023-05-14T09:21:42.094Z,49.35
2023-05-14T09:22:42.080Z,47.87
2023-05-14T09:23:42.062Z,52.77
2023-05-14T09:24:42.071Z,50.09
2023-05-14T09:25:42.040Z,52.62
2023-05-14T09:26:42.033Z,51.42
2023-05-14T09:27:42.032Z,53.55
2023-05-14T09:28:42.000Z,49.74
2023-05-14T09:29:42.047Z,49.94
2023-05-14T09:30:42.033Z,54.77
2023-05-14T09:31:42.040Z,53.19
2023-05-14T09:32:41.994Z,47.38
2023-05-14T09:33:42.176Z,49.54
2023-05-14T09:34:41.954Z,48.38
2023-05-14T09:35:41.979Z,48.98
2023-05-14T09:36:41.947Z,51.59
2023-05-14T09:37:41.944Z,55.11
2023-05-14T09:38:41.899Z,47.50
2023-05-14T09:39:41.889Z,48.37
2023-05-14T09:40:41.890Z,48.19
2023-05-14T09:41:41.906Z,50.46
2023-05-14T09:42:41.871Z,51.91
2023-05-14T09:43:41.849Z,51.49
2023-05-14T09:44:41.840Z,50.46
2023-05-14T09:45:41.841Z,50.34
2023-05-14T09:46:42.049Z,47.93
2023-05-14T09:47:41.856Z,44.76
2023-05-14T09:48:41.876Z,47.22
2023-05-14T09:49:41.795Z,47.88
2023-05-14T09:50:41.802Z,45.48
2023-05-14T09:51:41.800Z,46.31
2023-05-14T09:52:41.774Z,46.31
2023-05-14T09:53:41.751Z,49.10
2023-05-14T09:54:41.793Z,49.59
2023-05-14T09:55:41.755Z,48.35
2023-05-14T09:56:41.716Z,49.42
2023-05-14T09:57:41.717Z,55.03
2023-05-14T09:58:41.737Z,54.44
2023-05-14T09:59:41.713Z,54.58
2023-05-14T10:00:41.703Z,52.31
2023-05-14T10:01:41.743Z,53.62
2023-05-14T10:02:41.755Z,48.79
2023-05-14T10:03:41.661Z,53.79
2023-05-14T10:04:41.662Z,48.03
2023-05-14T10:05:41.625Z,53.52
2023-05-14T10:06:41.628Z,55.07
2023-05-14T10:07:41.640Z,48.38
2023-05-14T10:08:41.627Z,46.35
2023-05-14T10:09:41.610Z,49.14
2023-05-14T10:10:41.596Z,50.65
2023-05-14T10:11:41.577Z,57.29
2023-05-14T10:12:41.565Z,59.35
2023-05-14T10:13:41.553Z,52.44
2023-05-14T10:14:41.564Z,53.80
2023-05-14T10:15:41.521Z,55.39
2023-05-14T10:16:41.540Z,53.35
2023-05-14T10:17:41.576Z,63.51
2023-05-14T10:18:41.722Z,57.26
2023-05-14T10:19:41.481Z,54.88
2023-05-14T10:20:41.537Z,59.02
2023-05-14T10:21:41.451Z,54.61
2023-05-14T10:22:41.471Z,58.05
2023-05-14T10:23:41.455Z,60.55
2023-05-14T10:24:41.437Z,54.11
2023-05-14T10:25:41.447Z,52.23
2023-05-14T10:26:41.421Z,52.72
2023-05-14T10:27:41.420Z,48.70
2023-05-14T10:28:41.386Z,52.01
2023-05-14T10:29:41.372Z,53.72
2023-05-14T10:30:41.360Z,48.77
2023-05-14T10:31:41.397Z,52.58
2023-05-14T10:32:41.468Z,58.40
2023-05-14T10:33:41.326Z,52.85
2023-05-14T10:34:41.386Z,56.77
2023-05-14T10:35:41.346Z,63.87
2023-05-14T10:36:41.326Z,56.71
2023-05-14T10:37:41.279Z,51.25
2023-05-14T10:38:41.305Z,55.47
2023-05-14T10:39:41.521Z,57.20
2023-05-14T10:40:41.278Z,54.93
2023-05-14T10:41:41.255Z,57.07
2023-05-14T10:42:41.271Z,59.81
2023-05-14T10:43:41.213Z,49.32
2023-05-14T10:44:41.213Z,50.75
2023-05-14T10:45:41.194Z,50.75
2023-05-14T10:46:41.259Z,51.86
2023-05-14T10:47:41.201Z,49.20
2023-05-14T10:48:41.213Z,53.69
2023-05-14T10:49:43.922Z,54.06
2023-05-14T10:50:41.168Z,48.30
2023-05-14T10:51:41.249Z,46.63
2023-05-14T10:52:41.131Z,54.60
2023-05-14T10:53:41.135Z,46.41
2023-05-14T10:54:41.113Z,53.79
2023-05-14T10:55:41.114Z,47.86
2023-05-14T10:56:41.098Z,49.89
2023-05-14T10:57:41.094Z,46.23
2023-05-14T10:58:41.069Z,55.12
2023-05-14T10:59:41.053Z,48.87
2023-05-14T11:00:41.067Z,47.10
2023-05-14T11:01:41.082Z,53.54
2023-05-14T11:02:41.057Z,50.48
2023-05-14T11:03:41.096Z,52.13
2023-05-14T11:04:41.021Z,52.80
2023-05-14T11:05:40.984Z,53.49
2023-05-14T11:06:41.001Z,47.65
2023-05-14T11:07:40.973Z,48.75
2023-05-14T11:08:41.013Z,43.92
2023-05-14T11:09:40.973Z,43.27
2023-05-14T11:10:40.972Z,44.97
2023-05-14T11:11:40.979Z,47.41
2023-05-14T11:12:40.922Z,49.21
2023-05-14T11:13:40.921Z,47.51
2023-05-14T11:14:40.931Z,47.96
2023-05-14T11:15:40.884Z,44.36
2023-05-14T11:16:40.938Z,52.63
2023-05-14T11:17:40.975Z,48.21
2023-05-14T11:18:41.111Z,49.59
2023-05-14T11:19:40.866Z,44.04
2023-05-14T11:20:40.873Z,44.55
2023-05-14T11:21:40.869Z,50.09
2023-05-14T11:22:40.851Z,43.70
2023-05-14T11:23:40.863Z,45.56
2023-05-14T11:24:40.808Z,43.41
2023-05-14T11:25:40.813Z,46.38
2023-05-14T11:26:40.851Z,46.00
2023-05-14T11:27:40.793Z,48.05
2023-05-14T11:28:40.764Z,49.42
2023-05-14T11:29:40.737Z,54.33
2023-05-14T11:30:40.740Z,45.26
2023-05-14T11:31:40.750Z,45.88
2023-05-14T11:32:40.778Z,44.46
2023-05-14T11:33:40.735Z,47.46
2023-05-14T11:34:40.696Z,43.61
2023-05-14T11:35:40.712Z,47.28
2023-05-14T11:36:40.729Z,47.08
2023-05-14T11:37:40.675Z,46.33
2023-05-14T11:38:40.660Z,45.58
2023-05-14T11:39:40.653Z,57.18
2023-05-14T11:40:40.652Z,50.00
2023-05-14T11:41:40.831Z,51.57
2023-05-14T11:42:40.615Z,47.30
2023-05-14T11:43:40.615Z,51.34
2023-05-14T11:44:40.613Z,52.23
2023-05-14T11:45:40.642Z,48.37
2023-05-14T11:46:40.683Z,47.00
2023-05-14T11:47:40.599Z,47.40
2023-05-14T11:48:40.571Z,51.17
2023-05-14T11:49:40.564Z,48.69
2023-05-14T11:50:40.563Z,45.02
2023-05-14T11:51:40.544Z,48.10
2023-05-14T11:52:40.540Z,46.11
2023-05-14T11:53:40.525Z,56.30
2023-05-14T11:54:40.720Z,53.82
2023-05-14T11:55:40.500Z,52.61
2023-05-14T11:56:40.498Z,44.53
2023-05-14T11:57:40.492Z,53.85
2023-05-14T11:58:40.461Z,50.28
2023-05-14T11:59:40.709Z,47.40
2023-05-14T12:00:40.464Z,53.35
2023-05-14T12:01:40.413Z,48.66
2023-05-14T12:02:40.545Z,49.96
2023-05-14T12:03:40.571Z,51.62
2023-05-14T12:04:40.469Z,52.98
2023-05-14T12:05:40.417Z,43.96
2023-05-14T12:06:40.410Z,45.55
2023-05-14T12:07:40.348Z,49.42
2023-05-14T12:08:40.364Z,53.94
2023-05-14T12:09:40.655Z,51.96
2023-05-14T12:10:40.357Z,47.21
2023-05-14T12:11:40.335Z,45.06
2023-05-14T12:12:40.289Z,54.54
2023-05-14T12:13:40.288Z,47.19
2023-05-14T12:14:40.300Z,46.00
2023-05-14T12:15:40.323Z,44.76
2023-05-14T12:16:40.292Z,46.56
2023-05-14T12:17:40.312Z,53.30
2023-05-14T12:18:40.337Z,47.33
2023-05-14T12:19:40.218Z,46.14
2023-05-14T12:20:40.256Z,46.17
2023-05-14T12:21:40.237Z,44.43
2023-05-14T12:22:40.209Z,48.40
2023-05-14T12:23:40.178Z,46.92
2023-05-14T12:24:40.231Z,52.56
2023-05-14T12:25:40.164Z,49.14
2023-05-14T12:26:40.164Z,46.86
2023-05-14T12:27:40.172Z,47.95
2023-05-14T12:28:40.143Z,48.69
2023-05-14T12:29:40.132Z,49.48
2023-05-14T12:30:40.137Z,58.85
2023-05-14T12:31:40.186Z,49.09
2023-05-14T12:32:40.226Z,51.34
2023-05-14T12:33:40.077Z,48.33
2023-05-14T12:34:40.098Z,44.15
2023-05-14T12:35:40.065Z,51.77
2023-05-14T12:36:40.095Z,46.80
2023-05-14T12:37:40.165Z,51.54
2023-05-14T12:38:40.078Z,49.81
2023-05-14T12:39:40.034Z,46.50
2023-05-14T12:40:40.028Z,46.02
2023-05-14T12:41:40.024Z,46.96
2023-05-14T12:42:40.039Z,46.73
2023-05-14T12:43:40.011Z,50.92
2023-05-14T12:44:40.011Z,51.69
2023-05-14T12:45:40.000Z,49.63
2023-05-14T12:46:40.041Z,47.86
2023-05-14T12:47:40.031Z,47.96
2023-05-14T12:48:39.989Z,48.77
2023-05-14T12:49:39.934Z,46.93
2023-05-14T12:50:39.935Z,50.26
2023-05-14T12:51:39.924Z,41.37
2023-05-14T12:52:40.253Z,42.34
2023-05-14T12:53:39.894Z,44.67
2023-05-14T12:54:41.635Z,45.29
2023-05-14T12:55:39.862Z,46.09
2023-05-14T12:56:39.906Z,42.18
2023-05-14T12:57:39.891Z,47.99
2023-05-14T12:58:39.852Z,40.72
2023-05-14T12:59:39.861Z,44.76
2023-05-14T13:00:40.095Z,48.24
2023-05-14T13:01:39.946Z,43.31
2023-05-14T13:02:42.852Z,40.56
2023-05-14T13:03:39.814Z,47.18
2023-05-14T13:04:39.890Z,45.99
2023-05-14T13:05:39.780Z,44.88
2023-05-14T13:06:39.790Z,40.94
2023-05-14T13:07:39.740Z,44.68
2023-05-14T13:08:41.483Z,46.06
2023-05-14T13:09:39.757Z,44.81
2023-05-14T13:10:39.756Z,44.23
2023-05-14T13:11:39.699Z,43.54
2023-05-14T13:12:39.724Z,42.18
2023-05-14T13:13:39.719Z,49.24
2023-05-14T13:14:39.707Z,45.91
2023-05-14T13:15:39.893Z,47.27
2023-05-14T13:16:39.750Z,40.24
2023-05-14T13:17:39.691Z,42.02
2023-05-14T13:18:39.691Z,42.19
2023-05-14T13:19:39.677Z,46.14
2023-05-14T13:20:41.225Z,48.14
2023-05-14T13:21:39.614Z,44.11
2023-05-14T13:22:39.666Z,41.07
2023-05-14T13:23:39.597Z,41.04
2023-05-14T13:24:39.612Z,47.58
2023-05-14T13:25:39.607Z,47.46
2023-05-14T13:26:39.614Z,42.74
2023-05-14T13:27:39.589Z,44.32
2023-05-14T13:28:39.748Z,44.68
2023-05-14T13:29:39.520Z,48.49
2023-05-14T13:30:39.561Z,48.91
2023-05-14T13:31:39.537Z,48.71
2023-05-14T13:32:42.101Z,48.66
2023-05-14T13:33:39.498Z,48.37
2023-05-14T13:34:39.482Z,48.66
2023-05-14T13:35:39.469Z,51.51
2023-05-14T13:36:39.511Z,46.29
2023-05-14T13:37:39.462Z,51.91
2023-05-14T13:38:39.480Z,45.87
2023-05-14T13:39:41.089Z,51.44
2023-05-14T13:40:39.434Z,45.62
2023-05-14T13:41:39.427Z,48.54
2023-05-14T13:42:39.430Z,47.21
2023-05-14T13:43:39.386Z,48.74
2023-05-14T13:44:39.393Z,46.32
2023-05-14T13:45:39.429Z,48.43
2023-05-14T13:46:39.416Z,49.57
2023-05-14T13:47:40.285Z,49.20
2023-05-14T13:48:39.375Z,56.37
2023-05-14T13:49:39.316Z,51.79
2023-05-14T13:50:39.357Z,51.79
2023-05-14T13:51:39.372Z,52.29
2023-05-14T13:52:39.301Z,55.48
2023-05-14T13:53:39.323Z,50.10
2023-05-14T13:54:39.344Z,50.47
2023-05-14T13:55:39.261Z,51.07
2023-05-14T13:56:39.258Z,48.66
2023-05-14T13:57:39.239Z,46.72
2023-05-14T13:58:39.246Z,43.37
2023-05-14T13:59:39.220Z,42.49
2023-05-14T14:00:39.251Z,49.37
2023-05-14T14:01:39.252Z,48.90
2023-05-14T14:02:39.261Z,42.20
2023-05-14T14:03:39.214Z,42.72
2023-05-14T14:04:39.189Z,42.07
2023-05-14T14:05:39.631Z,41.79
2023-05-14T14:06:39.172Z,50.40
2023-05-14T14:07:39.232Z,48.22
2023-05-14T14:08:39.180Z,43.53
2023-05-14T14:09:39.162Z,42.88
2023-05-14T14:10:39.139Z,45.11
2023-05-14T14:11:39.134Z,41.43
2023-05-14T14:12:39.106Z,42.65
2023-05-14T14:13:39.091Z,41.31
2023-05-14T14:14:39.080Z,40.80
2023-05-14T14:15:39.087Z,38.61
2023-05-14T14:16:39.132Z,45.46
2023-05-14T14:17:39.148Z,43.77
2023-05-14T14:18:39.093Z,38.06
2023-05-14T14:19:39.074Z,37.87
2023-05-14T14:20:39.247Z,36.98
2023-05-14T14:21:39.030Z,36.68
2023-05-14T14:22:39.041Z,39.24
2023-05-14T14:23:39.086Z,35.41
2023-05-14T14:24:38.991Z,36.41
2023-05-14T14:25:39.008Z,37.29
2023-05-14T14:26:39.008Z,36.51
2023-05-14T14:27:38.976Z,40.27
2023-05-14T14:28:38.970Z,38.87
2023-05-14T14:29:38.942Z,38.26
2023-05-14T14:30:38.952Z,38.47
2023-05-14T14:31:39.043Z,42.76
2023-05-14T14:32:38.968Z,35.88
2023-05-14T14:33:38.921Z,36.03
2023-05-14T14:34:38.877Z,38.04
2023-05-14T14:35:38.894Z,38.37
2023-05-14T14:36:38.914Z,38.72
2023-05-14T14:37:38.872Z,40.28
2023-05-14T14:38:38.851Z,44.21
2023-05-14T14:39:38.893Z,41.83
2023-05-14T14:40:38.850Z,46.29
2023-05-14T14:41:38.858Z,43.71
2023-05-14T14:42:38.823Z,45.20
2023-05-14T14:43:38.852Z,43.65
2023-05-14T14:44:38.848Z,45.16
2023-05-14T14:45:38.838Z,46.30
2023-05-14T14:46:38.804Z,45.72
2023-05-14T14:47:38.783Z,47.17
2023-05-14T14:48:38.765Z,47.87
2023-05-14T14:49:38.760Z,49.09
2023-05-14T14:50:38.761Z,44.40
2023-05-14T14:51:38.725Z,44.86
2023-05-14T14:52:38.720Z,43.21
2023-05-14T14:53:38.704Z,41.96
2023-05-14T14:54:38.779Z,42.06
2023-05-14T14:55:38.743Z,45.10
2023-05-14T14:56:38.704Z,41.05
2023-05-14T14:57:38.693Z,41.35
2023-05-14T14:58:38.676Z,40.14
2023-05-14T14:59:38.676Z,43.17
2023-05-14T15:00:38.635Z,40.58
2023-05-14T15:01:38.675Z,39.67
2023-05-14T15:02:38.693Z,40.72
2023-05-14T15:03:38.771Z,42.10
2023-05-14T15:04:38.625Z,40.94
2023-05-14T15:05:38.619Z,43.79
2023-05-14T15:06:38.594Z,41.37
2023-05-14T15:07:38.615Z,39.61
2023-05-14T15:08:38.689Z,40.68
2023-05-14T15:09:38.569Z,39.69
2023-05-14T15:10:38.611Z,42.45
2023-05-14T15:11:38.553Z,41.57
2023-05-14T15:12:38.546Z,38.97
2023-05-14T15:13:38.521Z,40.46
2023-05-14T15:14:38.500Z,40.36
2023-05-14T15:15:38.564Z,37.51
2023-05-14T15:16:38.552Z,41.07
2023-05-14T15:17:38.786Z,38.02
2023-05-14T15:18:38.474Z,38.04
2023-05-14T15:19:38.473Z,41.11
2023-05-14T15:20:38.449Z,38.69
2023-05-14T15:21:38.468Z,42.32
2023-05-14T15:22:38.456Z,38.39
2023-05-14T15:23:38.412Z,40.44
2023-05-14T15:24:38.415Z,38.00
2023-05-14T15:25:38.403Z,41.17
2023-05-14T15:26:38.395Z,41.29
2023-05-14T15:27:38.434Z,38.23
2023-05-14T15:28:38.359Z,42.10
2023-05-14T15:29:38.367Z,38.66
2023-05-14T15:30:38.349Z,40.66
2023-05-14T15:31:38.358Z,40.96
2023-05-14T15:32:38.368Z,38.58
2023-05-14T15:33:38.330Z,41.85
2023-05-14T15:34:38.291Z,40.96
2023-05-14T15:35:38.358Z,42.20
2023-05-14T15:36:38.316Z,41.21
2023-05-14T15:37:38.310Z,38.92
2023-05-14T15:38:38.258Z,41.74
2023-05-14T15:39:38.261Z,39.85
2023-05-14T15:40:38.248Z,44.09
2023-05-14T15:41:38.244Z,43.20
2023-05-14T15:42:38.232Z,40.83
2023-05-14T15:43:38.262Z,38.75
2023-05-14T15:44:39.102Z,40.91
2023-05-14T15:45:38.203Z,40.89
2023-05-14T15:46:38.219Z,42.30
2023-05-14T15:47:38.279Z,41.13
2023-05-14T15:48:38.188Z,41.35
2023-05-14T15:49:38.158Z,39.97
2023-05-14T15:50:38.164Z,47.67
2023-05-14T15:51:38.158Z,42.36
2023-05-14T15:52:38.128Z,42.89
2023-05-14T15:53:38.129Z,44.00
2023-05-14T15:54:38.113Z,42.52
2023-05-14T15:55:38.119Z,42.91
2023-05-14T15:56:38.098Z,45.68
2023-05-14T15:57:38.099Z,44.44
2023-05-14T15:58:38.087Z,43.15
2023-05-14T15:59:38.118Z,42.42
2023-05-14T16:00:38.260Z,43.13
2023-05-14T16:01:38.104Z,47.21
2023-05-14T16:02:38.068Z,46.11
2023-05-14T16:03:38.106Z,48.64
2023-05-14T16:04:38.069Z,48.07
2023-05-14T16:05:38.025Z,51.27
2023-05-14T16:06:38.013Z,47.59
2023-05-14T16:07:37.999Z,48.54
2023-05-14T16:08:38.192Z,46.88
2023-05-14T16:09:38.051Z,44.31
2023-05-14T16:10:37.950Z,46.78
2023-05-14T16:11:37.982Z,48.05
2023-05-14T16:12:38.003Z,44.31
2023-05-14T16:13:37.956Z,45.64
2023-05-14T16:14:38.602Z,45.73
2023-05-14T16:15:37.957Z,49.90
2023-05-14T16:16:38.206Z,45.34
2023-05-14T16:17:37.917Z,46.41
2023-05-14T16:18:37.925Z,44.57
2023-05-14T16:19:37.873Z,46.18
2023-05-14T16:20:37.865Z,46.20
2023-05-14T16:21:37.882Z,48.43
2023-05-14T16:22:37.832Z,48.16
2023-05-14T16:23:37.871Z,47.46
2023-05-14T16:24:37.822Z,50.37
2023-05-14T16:25:37.815Z,48.82
2023-05-14T16:26:37.992Z,49.84
2023-05-14T16:27:37.992Z,52.24
2023-05-14T16:28:37.763Z,51.77
2023-05-14T16:29:37.803Z,49.27
2023-05-14T16:30:37.756Z,51.99
2023-05-14T16:31:37.826Z,52.31
2023-05-14T16:32:37.749Z,46.80
2023-05-14T16:33:37.734Z,46.55
2023-05-14T16:34:38.133Z,47.62
2023-05-14T16:35:37.712Z,46.91
2023-05-14T16:36:37.682Z,46.29
2023-05-14T16:37:37.778Z,44.11
2023-05-14T16:38:44.595Z,44.48
2023-05-14T16:39:38.723Z,45.37
2023-05-14T16:40:37.636Z,45.42
2023-05-14T16:41:37.691Z,48.29
2023-05-14T16:42:37.642Z,47.58